Time;durP1;ratioP1;P1;durP2;ratioP2;P2;SDS_P1;SDS_P2;PMS_P1;PMS_P2;Temp;Humidity;BMP_temperature;BMP_pressure;BME280_temperature;BME280_humidity;BME280_pressure;Samples;Min_cycle;Max_cycle;Signal;HPM_P1;HPM_P2
2022/05/27 00:01:21;;;;;;;21.15;5.32;;;14.50;99.90;;;;;;5037271;28;20041;-85
2022/05/27 00:03:47;;;;;;;20.50;5.60;;;14.50;99.90;;;;;;5038121;28;20055;-85
2022/05/27 00:06:13;;;;;;;17.75;5.47;;;14.50;99.90;;;;;;5021004;28;20080;-83
2022/05/27 00:08:39;;;;;;;22.42;4.78;;;14.40;99.90;;;;;;5038042;28;20432;-84
2022/05/27 00:11:05;;;;;;;14.98;4.60;;;14.40;99.90;;;;;;5037818;28;20094;-84
2022/05/27 00:13:32;;;;;;;18.67;4.60;;;14.40;99.90;;;;;;5021575;28;20033;-84
2022/05/27 00:15:58;;;;;;;17.52;4.75;;;14.40;99.90;;;;;;5021096;28;20041;-85
2022/05/27 00:18:24;;;;;;;15.80;3.97;;;14.40;99.90;;;;;;5021389;28;20052;-85
2022/05/27 00:20:50;;;;;;;23.58;4.68;;;14.40;99.90;;;;;;5021297;28;20040;-84
2022/05/27 00:23:17;;;;;;;17.40;4.32;;;14.40;99.90;;;;;;5004980;28;20044;-84
2022/05/27 00:25:42;;;;;;;21.77;4.05;;;14.40;99.90;;;;;;5037687;28;20051;-84
2022/05/27 00:28:08;;;;;;;13.07;3.55;;;14.30;99.90;;;;;;5021241;28;20033;-84
2022/05/27 00:30:35;;;;;;;12.43;3.30;;;14.20;99.90;;;;;;5021256;28;20063;-84
2022/05/27 00:33:01;;;;;;;26.27;4.60;;;14.20;99.90;;;;;;5015503;28;20056;-85
2022/05/27 00:35:26;;;;;;;16.92;3.65;;;14.20;99.90;;;;;;5001441;28;20045;-84
2022/05/27 00:37:52;;;;;;;14.25;3.47;;;14.10;99.90;;;;;;5001433;28;20465;-85
2022/05/27 00:40:19;;;;;;;15.07;3.00;;;14.10;99.90;;;;;;5001613;28;20405;-83
2022/05/27 00:42:46;;;;;;;13.55;3.20;;;14.00;99.90;;;;;;5034080;28;20190;-85
2022/05/27 00:45:21;;;;;;;17.08;3.22;;;14.00;99.90;;;;;;5033430;28;20072;-85
2022/05/27 00:47:52;;;;;;;12.60;2.70;;;13.90;99.90;;;;;;5033939;28;20077;-84
2022/05/27 00:50:21;;;;;;;16.88;3.30;;;13.90;99.90;;;;;;5017137;28;20038;-85
2022/05/27 00:52:48;;;;;;;12.93;3.03;;;13.90;99.90;;;;;;5017398;28;20073;-85
2022/05/27 00:55:20;;;;;;;14.48;3.22;;;13.80;99.90;;;;;;5037960;28;20041;-85
2022/05/27 00:58:05;;;;;;;15.35;3.38;;;13.80;99.90;;;;;;5033001;28;20128;-85
2022/05/27 01:00:30;;;;;;;15.75;2.53;;;13.70;99.90;;;;;;5050499;28;20041;-84
2022/05/27 01:02:58;;;;;;;15.75;3.30;;;13.60;99.90;;;;;;5033193;28;20034;-85
2022/05/27 01:05:25;;;;;;;18.35;3.20;;;13.90;99.90;;;;;;5048662;28;20102;-84
2022/05/27 01:07:57;;;;;;;16.80;3.20;;;13.50;99.90;;;;;;5037198;28;20390;-85
2022/05/27 01:10:25;;;;;;;12.98;3.20;;;13.50;99.90;;;;;;5053469;28;20049;-85
2022/05/27 01:13:02;;;;;;;16.58;2.90;;;13.40;99.90;;;;;;5053134;28;20053;-85
2022/05/27 01:15:49;;;;;;;16.63;3.13;;;13.40;99.90;;;;;;5036851;28;20127;-85
2022/05/27 01:20:18;;;;;;;15.13;3.03;;;13.40;99.90;;;;;;5052956;28;20105;-85
2022/05/27 01:21:25;;;;;;;17.67;3.28;;;13.30;99.90;;;;;;5050175;28;20112;-86
2022/05/27 01:24:33;;;;;;;15.25;3.55;;;13.30;99.90;;;;;;5017065;28;20048;-84
2022/05/27 01:27:05;;;;;;;16.00;2.80;;;13.30;99.90;;;;;;5032728;28;20044;-84
2022/05/27 01:29:50;;;;;;;13.30;2.95;;;13.30;99.90;;;;;;5033159;28;20053;-85
2022/05/27 01:32:42;;;;;;;14.82;3.58;;;13.30;99.90;;;;;;5032833;28;20068;-85
2022/05/27 01:35:41;;;;;;;14.98;3.08;;;13.30;99.90;;;;;;5032891;28;20126;-85
2022/05/27 01:38:10;;;;;;;9.20;2.80;;;13.20;99.90;;;;;;5032813;28;20037;-86
2022/05/27 01:41:04;;;;;;;16.17;3.40;;;13.20;99.90;;;;;;5032908;28;20048;-84
2022/05/27 01:43:41;;;;;;;14.60;3.08;;;13.10;99.90;;;;;;5032931;28;20040;-86
2022/05/27 01:46:21;;;;;;;;;;;13.10;99.90;;;;;;5033158;28;20077;-86
2022/05/27 01:49:05;;;;;;;17.15;3.80;;;13.10;99.90;;;;;;5016389;28;20353;-85
2022/05/27 01:51:37;;;;;;;13.35;3.08;;;13.00;99.90;;;;;;5032779;28;20091;-86
2022/05/27 01:54:43;;;;;;;14.38;3.00;;;13.00;99.90;;;;;;5032657;28;20040;-86
2022/05/27 01:57:15;;;;;;;14.77;2.80;;;12.90;99.90;;;;;;5032375;28;20041;-85
2022/05/27 02:00:05;;;;;;;14.98;3.22;;;12.80;99.90;;;;;;5016597;28;20044;-86
2022/05/27 02:02:34;;;;;;;16.67;3.50;;;12.80;99.90;;;;;;5016074;28;20041;-85
2022/05/27 02:05:06;;;;;;;12.38;2.92;;;12.70;99.90;;;;;;5032135;28;20575;-86
2022/05/27 02:07:38;;;;;;;15.68;3.22;;;12.60;99.90;;;;;;5015991;28;20037;-85
2022/05/27 02:10:11;;;;;;;18.58;3.63;;;12.60;99.90;;;;;;5032242;28;20566;-86
2022/05/27 02:12:47;;;;;;;13.45;3.30;;;12.50;99.90;;;;;;5032411;28;20037;-85
2022/05/27 02:15:28;;;;;;;13.95;3.05;;;12.50;99.90;;;;;;5032483;28;20489;-85
2022/05/27 02:18:25;;;;;;;12.10;3.08;;;12.40;99.90;;;;;;5032347;28;20037;-85
2022/05/27 02:20:56;;;;;;;9.43;2.83;;;12.40;99.90;;;;;;5060543;28;20048;-85
2022/05/27 02:23:28;;;;;;;15.32;3.17;;;12.40;99.90;;;;;;5032480;28;20037;-85
2022/05/27 02:25:56;;;;;;;17.70;3.15;;;12.30;99.90;;;;;;5031962;28;20049;-84
2022/05/27 02:28:31;;;;;;;12.45;3.20;;;12.30;99.90;;;;;;5032044;28;20049;-85
2022/05/27 02:31:02;;;;;;;14.07;2.63;;;12.30;99.90;;;;;;5031893;28;20096;-84
2022/05/27 02:36:51;;;;;;;16.05;2.85;;;12.30;99.90;;;;;;5060368;28;20201;-86
2022/05/27 02:39:17;;;;;;;11.80;3.33;;;12.30;99.90;;;;;;5031812;28;20091;-86
2022/05/27 02:41:57;;;;;;;11.45;3.03;;;12.20;99.90;;;;;;5032323;28;20129;-87
2022/05/27 02:45:10;;;;;;;8.30;2.70;;;12.20;99.90;;;;;;5015887;28;20075;-86
2022/05/27 02:47:42;;;;;;;7.75;2.47;;;12.20;99.90;;;;;;5056772;28;20510;-86
2022/05/27 02:50:33;;;;;;;10.27;2.92;;;12.10;99.90;;;;;;5019332;28;20046;-85
2022/05/27 02:53:04;;;;;;;17.30;2.78;;;12.10;99.90;;;;;;5014327;28;20057;-85
2022/05/27 02:55:54;;;;;;;13.18;2.45;;;12.10;99.90;;;;;;5031823;28;20041;-86
2022/05/27 02:58:20;;;;;;;10.02;2.40;;;12.00;99.90;;;;;;5031593;28;20071;-85
2022/05/27 03:00:46;;;;;;;15.70;2.80;;;12.00;99.90;;;;;;5015505;28;20045;-85
2022/05/27 03:03:12;;;;;;;13.82;2.95;;;12.00;99.90;;;;;;5046114;28;20037;-85
2022/05/27 03:06:00;;;;;;;15.73;3.05;;;11.90;99.90;;;;;;5014704;28;20107;-86
2022/05/27 03:09:04;;;;;;;10.05;2.63;;;11.90;99.90;;;;;;5014990;28;20037;-85
2022/05/27 03:11:51;;;;;;;12.95;2.60;;;11.80;99.90;;;;;;5031240;28;20046;-85
2022/05/27 03:14:47;;;;;;;12.27;2.70;;;11.80;99.90;;;;;;5031646;28;20486;-85
2022/05/27 03:17:32;;;;;;;9.68;2.67;;;11.80;99.90;;;;;;5031476;28;20049;-85
2022/05/27 03:20:28;;;;;;;11.70;2.90;;;11.70;99.90;;;;;;5031137;28;20037;-85
2022/05/27 03:23:05;;;;;;;12.02;3.30;;;11.70;99.90;;;;;;5014714;28;20037;-86
2022/05/27 03:25:56;;;;;;;13.80;3.10;;;11.60;99.90;;;;;;5031618;28;20600;-86
2022/05/27 03:28:43;;;;;;;12.05;2.70;;;11.70;99.90;;;;;;5031186;28;20078;-85
2022/05/27 03:31:27;;;;;;;16.75;2.88;;;11.60;99.90;;;;;;5031452;28;20045;-87
2022/05/27 03:34:06;;;;;;;14.32;2.90;;;11.60;99.90;;;;;;5031755;28;20548;-86
2022/05/27 03:36:52;;;;;;;15.82;3.38;;;11.60;99.90;;;;;;5015108;28;20043;-86
2022/05/27 03:39:30;;;;;;;11.45;3.08;;;11.60;99.90;;;;;;5031266;28;20064;-87
2022/05/27 03:42:03;;;;;;;11.05;2.88;;;11.50;99.90;;;;;;5014840;28;20129;-85
2022/05/27 03:44:30;;;;;;;11.45;2.70;;;11.50;99.90;;;;;;5031112;28;20079;-85
2022/05/27 03:46:57;;;;;;;14.05;2.60;;;11.50;99.90;;;;;;4999171;28;20148;-86
2022/05/27 03:49:23;;;;;;;12.82;3.13;;;11.50;99.90;;;;;;5031042;28;20033;-85
2022/05/27 03:52:06;;;;;;;14.50;3.13;;;11.60;99.90;;;;;;5014763;28;20041;-84
2022/05/27 03:54:32;;;;;;;12.05;2.90;;;11.60;99.90;;;;;;5031418;28;20037;-85
2022/05/27 03:56:58;;;;;;;18.00;3.28;;;11.60;99.90;;;;;;5014522;28;20049;-86
2022/05/27 03:59:25;;;;;;;18.70;3.15;;;11.60;99.90;;;;;;5030915;28;20386;-85
2022/05/27 04:01:52;;;;;;;10.45;2.63;;;11.60;99.90;;;;;;5014594;28;20045;-88
2022/05/27 04:04:21;;;;;;;13.15;2.75;;;11.60;99.90;;;;;;5032505;28;20042;-87
2022/05/27 04:06:47;;;;;;;15.43;3.00;;;11.60;99.90;;;;;;5016712;28;20461;-87
2022/05/27 04:09:14;;;;;;;11.15;2.53;;;11.60;99.90;;;;;;5030353;28;20045;-88
2022/05/27 04:11:40;;;;;;;12.40;2.80;;;11.60;99.90;;;;;;5030899;28;20042;-87
2022/05/27 04:14:06;;;;;;;6.38;1.83;;;11.70;99.90;;;;;;4998359;28;20041;-86
2022/05/27 04:16:32;;;;;;;14.18;2.55;;;11.70;99.90;;;;;;5014249;28;20132;-85
2022/05/27 04:18:57;;;;;;;9.80;2.33;;;11.80;99.90;;;;;;5014091;28;20119;-85
2022/05/27 04:21:23;;;;;;;15.85;2.60;;;11.80;99.90;;;;;;5001706;28;20079;-86
2022/05/27 04:23:49;;;;;;;13.15;2.60;;;11.90;99.90;;;;;;5031222;28;20129;-85
2022/05/27 04:26:15;;;;;;;9.70;2.42;;;11.90;99.90;;;;;;5030712;28;20048;-86
2022/05/27 04:28:41;;;;;;;15.10;2.55;;;12.00;99.90;;;;;;5014233;28;20041;-85
2022/05/27 04:31:07;;;;;;;11.80;2.80;;;12.20;99.90;;;;;;5030749;28;20482;-85
2022/05/27 04:33:33;;;;;;;16.40;2.88;;;12.10;99.90;;;;;;5029914;28;20060;-86
2022/05/27 04:35:59;;;;;;;11.48;2.90;;;12.00;99.90;;;;;;5034138;28;20452;-86
2022/05/27 04:38:25;;;;;;;18.00;3.08;;;12.10;99.90;;;;;;5034639;28;20493;-86
2022/05/27 04:40:51;;;;;;;11.73;2.85;;;12.10;99.90;;;;;;5018407;28;20048;-86
2022/05/27 04:43:18;;;;;;;15.98;2.80;;;12.10;99.90;;;;;;5034056;28;20041;-86
2022/05/27 04:45:45;;;;;;;12.50;2.72;;;12.20;99.90;;;;;;5017706;28;20044;-86
2022/05/27 04:48:10;;;;;;;13.52;2.72;;;12.30;99.90;;;;;;5018025;28;20720;-87
2022/05/27 04:50:37;;;;;;;15.40;2.70;;;12.30;99.90;;;;;;5018025;28;20037;-87
2022/05/27 04:53:04;;;;;;;13.15;2.78;;;12.30;99.90;;;;;;5001176;28;20043;-86
2022/05/27 04:55:32;;;;;;;15.95;3.05;;;12.30;99.90;;;;;;5017388;28;20046;-88
2022/05/27 04:57:59;;;;;;;12.15;2.88;;;12.50;99.90;;;;;;5034107;28;20041;-87
2022/05/27 05:00:28;;;;;;;11.23;2.40;;;12.40;99.90;;;;;;5017697;28;20080;-87
2022/05/27 05:02:55;;;;;;;12.23;2.67;;;12.40;99.90;;;;;;5034063;28;20125;-87
2022/05/27 05:05:22;;;;;;;9.60;2.50;;;12.40;99.90;;;;;;5020666;28;20111;-87
2022/05/27 05:08:00;;;;;;;10.15;2.63;;;12.40;99.90;;;;;;5017827;28;20046;-87
2022/05/27 05:10:27;;;;;;;8.60;2.40;;;12.50;99.90;;;;;;5017189;28;20111;-86
2022/05/27 05:12:53;;;;;;;;;;;12.40;99.90;;;;;;5034350;28;20045;-86
2022/05/27 05:15:20;;;;;;;15.32;3.10;;;12.40;99.90;;;;;;5016713;28;19916;-87
2022/05/27 05:17:46;;;;;;;12.80;2.50;;;12.40;99.90;;;;;;5001145;28;20046;-87
2022/05/27 05:20:15;;;;;;;8.70;2.13;;;12.50;99.90;;;;;;5033671;28;20493;-85
2022/05/27 05:22:40;;;;;;;14.52;2.90;;;12.50;99.90;;;;;;5066618;28;20092;-86
2022/05/27 05:25:07;;;;;;;9.75;2.20;;;12.50;99.90;;;;;;5016684;28;20041;-86
2022/05/27 05:27:34;;;;;;;11.55;2.72;;;12.50;99.90;;;;;;5000767;28;20038;-87
2022/05/27 05:30:00;;;;;;;10.50;2.50;;;12.60;99.90;;;;;;5017383;28;20520;-86
2022/05/27 05:32:26;;;;;;;12.30;2.15;;;12.60;99.90;;;;;;5053068;28;20187;-86
2022/05/27 05:34:55;;;;;;;14.23;2.63;;;12.60;99.90;;;;;;5036680;28;20516;-87
2022/05/27 05:37:20;;;;;;;12.40;2.25;;;12.60;99.90;;;;;;5036251;28;20056;-87
2022/05/27 05:39:46;;;;;;;16.30;3.37;;;12.70;99.90;;;;;;5019885;28;20412;-87
2022/05/27 05:42:12;;;;;;;10.13;2.33;;;12.70;99.90;;;;;;5036113;28;20366;-87
2022/05/27 05:44:38;;;;;;;9.52;1.88;;;12.80;99.90;;;;;;5036015;28;20315;-87
2022/05/27 05:47:04;;;;;;;8.55;2.28;;;12.90;99.90;;;;;;5019513;28;20072;-87
2022/05/27 05:49:30;;;;;;;11.50;2.17;;;13.10;99.90;;;;;;5052919;28;20477;-87
2022/05/27 05:51:58;;;;;;;9.65;2.15;;;13.20;99.90;;;;;;5053217;28;20048;-86
2022/05/27 05:54:26;;;;;;;9.15;2.47;;;13.30;99.90;;;;;;5053118;28;20416;-86
2022/05/27 05:56:52;;;;;;;13.23;2.15;;;13.70;99.90;;;;;;5024170;28;20393;-87
2022/05/27 05:59:19;;;;;;;11.43;2.20;;;14.00;99.90;;;;;;5052684;28;20048;-87
2022/05/27 06:01:45;;;;;;;14.13;2.47;;;14.20;99.90;;;;;;5052757;28;20051;-87
2022/05/27 06:04:11;;;;;;;11.55;2.28;;;14.40;99.90;;;;;;5034983;28;20555;-87
2022/05/27 06:06:38;;;;;;;12.10;2.85;;;14.60;99.90;;;;;;5015849;28;20132;-87
2022/05/27 06:09:05;;;;;;;10.68;2.47;;;14.40;99.90;;;;;;5015726;28;20041;-87
2022/05/27 06:11:31;;;;;;;14.98;2.30;;;14.50;99.90;;;;;;5032271;28;20040;-87
2022/05/27 06:13:57;;;;;;;12.60;2.65;;;14.80;99.90;;;;;;5016141;28;20041;-86
2022/05/27 06:16:23;;;;;;;13.07;2.35;;;15.10;99.90;;;;;;5032178;28;20045;-88
2022/05/27 06:18:49;;;;;;;11.23;2.60;;;15.10;99.90;;;;;;5015768;28;20045;-87
2022/05/27 06:21:16;;;;;;;11.57;2.63;;;15.30;99.90;;;;;;5032689;28;20045;-85
2022/05/27 06:23:41;;;;;;;9.98;2.45;;;15.40;99.90;;;;;;5032177;28;20120;-87
2022/05/27 06:26:10;;;;;;;13.38;2.53;;;15.50;99.90;;;;;;5015275;28;20128;-86
2022/05/27 06:37:04;;;;;;;13.50;2.17;;;15.70;99.90;;;;;;5002870;28;20049;-86
2022/05/27 06:39:32;;;;;;;10.35;1.90;;;15.80;99.90;;;;;;5034914;28;20389;-87
2022/05/27 06:41:57;;;;;;;11.45;1.73;;;15.70;99.90;;;;;;5051942;28;20036;-86
2022/05/27 06:44:23;;;;;;;11.82;2.35;;;15.60;99.90;;;;;;5068148;28;20132;-87
2022/05/27 06:46:51;;;;;;;14.80;2.28;;;15.60;99.90;;;;;;5051584;28;20615;-87
2022/05/27 06:49:17;;;;;;;8.40;1.90;;;15.50;99.90;;;;;;5034949;28;20036;-86
2022/05/27 06:51:44;;;;;;;9.90;2.70;;;15.60;99.90;;;;;;5051749;28;20043;-85
2022/05/27 06:54:11;;;;;;;10.40;2.05;;;15.80;99.90;;;;;;5051565;28;20392;-87
2022/05/27 06:56:37;;;;;;;;;;;16.20;99.90;;;;;;5042788;28;20049;-87
2022/05/27 06:59:04;;;;;;;7.40;1.88;;;16.40;99.90;;;;;;5025583;28;19940;-87
2022/05/27 07:01:30;;;;;;;10.68;1.88;;;16.40;99.90;;;;;;5015558;28;20497;-87
2022/05/27 07:03:55;;;;;;;14.07;2.60;;;16.10;99.90;;;;;;5031467;28;20136;-87
2022/05/27 07:06:25;;;;;;;11.23;2.28;;;15.90;99.90;;;;;;5031152;28;20557;-87
2022/05/27 07:08:51;;;;;;;10.77;2.05;;;15.80;99.90;;;;;;5015480;28;20470;-87
2022/05/27 07:11:17;;;;;;;8.38;2.03;;;15.70;99.90;;;;;;5048225;28;20079;-86
2022/05/27 07:13:42;;;;;;;10.35;2.50;;;15.70;99.90;;;;;;5026314;28;20037;-86
2022/05/27 07:16:08;;;;;;;8.82;2.10;;;15.80;99.90;;;;;;5034695;28;20095;-87
2022/05/27 07:18:34;;;;;;;10.48;2.38;;;16.10;99.90;;;;;;5051645;28;20505;-85
2022/05/27 07:21:05;;;;;;;8.88;1.75;;;16.20;99.90;;;;;;5018292;28;20048;-87
2022/05/27 07:23:31;;;;;;;13.35;1.92;;;16.50;99.90;;;;;;5051633;28;20544;-85
2022/05/27 07:25:57;;;;;;;;;;;16.40;99.90;;;;;;5051344;28;20117;-86
2022/05/27 07:28:23;;;;;;;10.30;2.10;;;16.50;99.90;;;;;;5038329;28;20483;-85
2022/05/27 07:30:49;;;;;;;8.68;2.08;;;16.00;99.90;;;;;;5014945;28;20034;-86
2022/05/27 07:33:15;;;;;;;7.95;1.50;;;16.00;99.90;;;;;;5050415;28;20567;-86
2022/05/27 07:35:41;;;;;;;10.68;1.90;;;15.80;99.90;;;;;;5034490;28;20041;-86
2022/05/27 07:38:07;;;;;;;9.75;2.47;;;15.90;99.90;;;;;;5030373;28;20045;-86
2022/05/27 07:40:32;;;;;;;7.45;2.15;;;15.90;99.90;;;;;;5035288;28;20094;-86
2022/05/27 07:42:58;;;;;;;9.45;2.20;;;16.30;99.90;;;;;;5051908;28;20041;-86
2022/05/27 07:45:27;;;;;;;11.60;2.53;;;16.60;99.90;;;;;;5034706;28;20140;-86
2022/05/27 07:47:56;;;;;;;12.98;2.40;;;16.80;99.90;;;;;;5030987;28;20037;-86
2022/05/27 07:50:23;;;;;;;9.48;1.90;;;17.10;99.90;;;;;;5050306;28;20120;-86
2022/05/27 07:52:49;;;;;;;11.13;2.00;;;17.10;99.90;;;;;;5014643;28;20042;-85
2022/05/27 07:55:15;;;;;;;;;;;17.20;99.90;;;;;;5014920;28;20045;-86
2022/05/27 07:57:47;;;;;;;11.65;2.05;;;16.90;99.90;;;;;;5014581;28;19917;-86
2022/05/27 08:00:20;;;;;;;7.95;1.65;;;16.70;99.90;;;;;;5014951;28;20053;-86
2022/05/27 08:02:46;;;;;;;13.65;2.00;;;16.70;99.90;;;;;;5031109;28;20053;-86
2022/05/27 08:05:19;;;;;;;10.13;1.92;;;17.00;99.90;;;;;;5036355;28;20494;-86
2022/05/27 08:07:45;;;;;;;9.15;2.20;;;17.50;99.90;;;;;;5016562;28;20053;-86
2022/05/27 08:10:14;;;;;;;9.10;2.00;;;17.50;99.90;;;;;;5035023;28;20033;-86
2022/05/27 08:12:40;;;;;;;7.65;2.13;;;17.60;99.90;;;;;;5018383;28;20042;-86
2022/05/27 08:15:08;;;;;;;10.95;2.05;;;17.10;99.90;;;;;;5034555;28;20052;-86
2022/05/27 08:17:34;;;;;;;9.32;1.90;;;17.10;99.90;;;;;;5034869;28;20041;-86
2022/05/27 08:20:00;;;;;;;10.65;2.30;;;17.10;99.90;;;;;;5005306;28;20466;-86
2022/05/27 08:22:26;;;;;;;12.40;2.30;;;17.30;99.90;;;;;;5034564;28;20048;-86
2022/05/27 08:24:52;;;;;;;8.40;1.90;;;17.60;99.90;;;;;;5040556;28;20489;-86
2022/05/27 08:27:18;;;;;;;9.65;1.92;;;17.70;99.90;;;;;;5018107;28;20100;-85
2022/05/27 08:29:44;;;;;;;8.32;2.28;;;17.20;99.90;;;;;;5035027;28;20040;-86
2022/05/27 08:32:10;;;;;;;7.68;2.05;;;16.80;99.90;;;;;;5017841;28;20053;-86
2022/05/27 08:40:37;;;;;;;7.47;1.75;;;17.60;99.90;;;;;;5020682;28;20115;-85
2022/05/27 08:43:16;;;;;;;8.48;1.80;;;17.60;99.90;;;;;;5017594;28;20041;-86
2022/05/27 08:46:23;;;;;;;5.55;1.33;;;18.00;99.90;;;;;;5034483;28;20049;-86
2022/05/27 08:48:54;;;;;;;8.85;1.70;;;18.20;99.90;;;;;;5018082;28;20048;-87
2022/05/27 08:51:49;;;;;;;7.10;1.85;;;17.80;99.90;;;;;;5034201;28;20052;-86
2022/05/27 08:54:29;;;;;;;9.10;1.70;;;17.90;99.90;;;;;;5011324;28;20061;-86
2022/05/27 08:59:49;;;;;;;8.85;1.80;;;18.40;99.90;;;;;;5034513;28;20045;-87
2022/05/27 09:02:42;;;;;;;10.27;2.10;;;18.40;99.90;;;;;;5017367;28;20142;-87
2022/05/27 09:05:26;;;;;;;10.95;2.00;;;18.60;99.90;;;;;;5033871;28;20042;-86
2022/05/27 09:07:58;;;;;;;8.95;2.00;;;18.50;99.90;;;;;;5034278;28;20486;-88
2022/05/27 09:10:58;;;;;;;7.82;1.83;;;18.90;99.90;;;;;;5041597;28;20051;-88
2022/05/27 09:13:47;;;;;;;8.30;2.13;;;19.00;99.90;;;;;;5037249;28;20036;-86
2022/05/27 09:16:22;;;;;;;7.28;1.67;;;19.10;99.90;;;;;;5053949;28;20504;-86
2022/05/27 09:19:25;;;;;;;7.00;1.70;;;18.90;99.90;;;;;;5057701;28;20142;-86
2022/05/27 09:22:08;;;;;;;10.15;1.90;;;18.30;99.90;;;;;;5015288;28;20048;-85
2022/05/27 09:25:12;;;;;;;7.97;2.53;;;18.00;99.90;;;;;;5053485;28;20127;-86
2022/05/27 09:27:59;;;;;;;8.52;1.80;;;17.90;99.90;;;;;;5047700;28;20037;-86
2022/05/27 09:30:26;;;;;;;10.98;2.13;;;17.80;99.90;;;;;;5033280;28;20045;-86
2022/05/27 09:32:58;;;;;;;12.00;1.90;;;17.80;99.90;;;;;;5042579;28;20128;-86
2022/05/27 09:35:45;;;;;;;10.40;2.10;;;17.80;99.90;;;;;;5053265;28;20084;-85
2022/05/27 09:38:22;;;;;;;12.82;2.78;;;17.90;99.90;;;;;;5053141;28;20095;-86
2022/05/27 09:41:01;;;;;;;9.65;1.65;;;17.90;99.90;;;;;;5036951;28;20484;-85
2022/05/27 09:43:45;;;;;;;9.75;2.03;;;17.80;99.90;;;;;;5053065;28;20045;-86
2022/05/27 09:46:23;;;;;;;10.45;2.00;;;17.90;99.90;;;;;;5036596;28;20056;-87
2022/05/27 09:48:49;;;;;;;9.77;1.80;;;18.30;99.90;;;;;;5035081;28;20082;-86
2022/05/27 09:51:16;;;;;;;8.43;1.80;;;18.50;99.90;;;;;;5028229;28;20049;-86
2022/05/27 09:53:48;;;;;;;7.90;1.90;;;18.70;99.90;;;;;;5056581;28;20041;-87
2022/05/27 09:56:15;;;;;;;8.48;1.60;;;18.90;99.90;;;;;;5053425;28;20141;-86
2022/05/27 09:58:47;;;;;;;11.07;1.92;;;18.60;99.90;;;;;;5053309;28;20485;-85
2022/05/27 10:01:26;;;;;;;9.10;1.88;;;18.30;99.90;;;;;;5052758;28;20122;-85
2022/05/27 10:04:00;;;;;;;8.50;1.67;;;18.40;99.90;;;;;;5052843;28;20123;-87
2022/05/27 10:06:28;;;;;;;8.68;1.50;;;18.90;99.90;;;;;;5019545;28;20136;-85
2022/05/27 10:08:57;;;;;;;5.65;1.45;;;19.10;99.90;;;;;;5032906;28;20044;-86
2022/05/27 10:11:24;;;;;;;9.20;1.60;;;19.00;99.90;;;;;;5016005;28;20034;-86
2022/05/27 10:14:10;;;;;;;8.85;1.60;;;18.50;99.90;;;;;;5033333;28;20452;-86
2022/05/27 10:16:40;;;;;;;8.57;1.80;;;18.10;99.90;;;;;;5032359;28;20072;-86
2022/05/27 10:19:13;;;;;;;12.00;2.17;;;18.40;99.90;;;;;;5032547;28;20092;-86
2022/05/27 10:22:03;;;;;;;7.22;1.60;;;18.70;99.90;;;;;;5032578;28;20057;-86
2022/05/27 10:24:41;;;;;;;11.23;2.17;;;18.60;99.90;;;;;;5032605;28;20041;-86
2022/05/27 10:27:20;;;;;;;10.50;2.08;;;18.70;99.90;;;;;;5032354;28;20749;-87
2022/05/27 10:29:55;;;;;;;8.88;2.05;;;18.70;99.90;;;;;;5016152;28;20111;-86
2022/05/27 10:32:47;;;;;;;8.95;1.70;;;18.50;99.90;;;;;;5029937;28;20358;-85
2022/05/27 10:35:29;;;;;;;10.18;1.70;;;18.80;99.90;;;;;;5060910;28;20041;-86
2022/05/27 10:38:13;;;;;;;9.65;2.20;;;19.20;99.90;;;;;;5032341;28;20124;-86
2022/05/27 10:40:47;;;;;;;9.38;2.30;;;18.70;99.90;;;;;;5015811;28;20065;-86
2022/05/27 10:43:38;;;;;;;10.05;1.75;;;18.50;99.90;;;;;;5031985;28;20041;-86
2022/05/27 10:46:07;;;;;;;10.20;1.92;;;18.40;99.90;;;;;;5015179;28;20052;-86
2022/05/27 10:49:03;;;;;;;8.43;2.10;;;18.40;99.90;;;;;;5032541;28;20398;-87
2022/05/27 10:51:59;;;;;;;11.15;2.38;;;18.40;99.90;;;;;;5032011;28;20044;-85
2022/05/27 10:54:46;;;;;;;7.85;1.67;;;18.30;99.90;;;;;;5031876;28;20083;-86
2022/05/27 11:03:09;;;;;;;8.13;1.83;;;18.40;99.90;;;;;;5032028;28;20045;-86
2022/05/27 11:05:47;;;;;;;11.48;2.42;;;17.70;99.90;;;;;;5015318;28;20045;-86
2022/05/27 11:08:27;;;;;;;9.65;1.98;;;17.60;99.90;;;;;;5015104;28;20045;-85
2022/05/27 11:11:12;;;;;;;11.55;2.10;;;17.00;99.90;;;;;;5031747;28;20139;-86
2022/05/27 11:17:07;;;;;;;9.82;1.95;;;17.40;99.90;;;;;;5038765;28;20543;-86
2022/05/27 11:19:35;;;;;;;7.22;1.80;;;18.20;99.90;;;;;;5037390;28;20137;-86
2022/05/27 11:22:28;;;;;;;9.18;2.00;;;18.40;99.90;;;;;;5031798;28;20111;-86
2022/05/27 11:25:05;;;;;;;11.02;2.35;;;18.60;99.90;;;;;;5015421;28;20105;-86
2022/05/27 11:27:43;;;;;;;12.95;1.90;;;18.00;99.90;;;;;;5021014;28;20041;-85
2022/05/27 11:30:08;;;;;;;10.00;2.20;;;17.90;99.90;;;;;;5018820;28;20128;-85
2022/05/27 11:32:53;;;;;;;10.10;1.75;;;18.20;99.90;;;;;;5033490;28;20528;-85
2022/05/27 11:35:35;;;;;;;10.23;2.00;;;18.10;99.90;;;;;;5031655;28;20056;-86
2022/05/27 11:38:46;;;;;;;9.60;2.03;;;17.70;99.90;;;;;;5015364;28;20121;-87
2022/05/27 11:41:32;;;;;;;8.07;1.48;;;18.10;99.90;;;;;;5027923;28;20406;-86
2022/05/27 11:44:04;;;;;;;12.60;1.88;;;18.30;99.90;;;;;;5040935;28;20041;-86
2022/05/27 11:46:38;;;;;;;8.40;1.95;;;18.20;99.90;;;;;;5038233;28;20041;-86
2022/05/27 11:49:14;;;;;;;9.38;1.95;;;18.20;99.90;;;;;;5038144;28;20409;-86
2022/05/27 11:51:59;;;;;;;11.32;2.22;;;18.20;99.90;;;;;;5044492;28;20124;-86
2022/05/27 11:55:01;;;;;;;8.40;2.03;;;18.20;99.90;;;;;;5054618;28;20045;-87
2022/05/27 11:57:29;;;;;;;9.55;1.70;;;18.20;99.90;;;;;;5037977;28;20049;-87
2022/05/27 12:00:05;;;;;;;7.85;1.73;;;18.10;99.90;;;;;;5046242;28;20052;-86
2022/05/27 12:02:57;;;;;;;13.17;2.03;;;18.00;99.90;;;;;;5024289;28;20044;-86
2022/05/27 12:05:37;;;;;;;10.30;1.85;;;18.30;99.90;;;;;;5042886;28;20140;-86
2022/05/27 12:08:12;;;;;;;8.82;1.63;;;18.30;99.90;;;;;;5037370;28;20038;-86
2022/05/27 12:10:52;;;;;;;8.23;1.88;;;18.10;99.90;;;;;;5037604;28;20041;-86
2022/05/27 12:13:38;;;;;;;9.93;2.10;;;18.20;99.90;;;;;;5054154;28;20045;-85
2022/05/27 12:16:10;;;;;;;12.32;2.03;;;18.00;99.90;;;;;;5070133;28;20045;-85
2022/05/27 12:18:44;;;;;;;10.00;2.13;;;17.70;99.90;;;;;;5044656;28;20041;-85
2022/05/27 12:21:21;;;;;;;10.15;2.13;;;17.90;99.90;;;;;;5025433;28;20497;-86
2022/05/27 12:24:03;;;;;;;10.18;1.90;;;18.10;99.90;;;;;;5037323;28;20055;-86
2022/05/27 12:26:33;;;;;;;10.55;2.38;;;18.30;99.90;;;;;;5037239;28;20106;-86
2022/05/27 12:29:02;;;;;;;12.48;1.80;;;18.20;99.90;;;;;;5021251;28;20496;-86
2022/05/27 12:31:31;;;;;;;7.57;1.75;;;18.20;99.90;;;;;;5020763;28;20150;-86
2022/05/27 12:33:57;;;;;;;10.88;2.20;;;18.10;99.90;;;;;;5020847;28;20049;-86
2022/05/27 12:36:27;;;;;;;11.90;1.85;;;17.80;99.90;;;;;;5020420;28;20044;-86
2022/05/27 12:38:57;;;;;;;8.95;1.92;;;17.70;99.90;;;;;;5021234;28;20116;-86
2022/05/27 12:41:41;;;;;;;12.82;2.45;;;17.50;99.90;;;;;;5020893;28;20038;-85
2022/05/27 12:44:25;;;;;;;10.05;2.00;;;17.30;99.90;;;;;;5020586;28;20077;-85
2022/05/27 12:46:55;;;;;;;8.70;2.00;;;17.60;99.90;;;;;;5023623;28;20393;-85
2022/05/27 12:49:26;;;;;;;10.15;1.67;;;17.70;99.90;;;;;;5040302;28;20036;-86
2022/05/27 12:51:54;;;;;;;11.00;2.05;;;17.60;99.90;;;;;;5040790;28;20496;-85
2022/05/27 12:54:58;;;;;;;12.60;2.33;;;17.10;99.90;;;;;;5036784;28;20071;-85
2022/05/27 13:03:28;;;;;;;12.02;2.13;;;17.20;99.90;;;;;;5053559;28;20087;-86
2022/05/27 13:06:14;;;;;;;11.32;1.90;;;16.90;99.90;;;;;;5017203;28;20081;-85
2022/05/27 13:08:42;;;;;;;8.85;2.05;;;16.80;99.90;;;;;;5034393;28;20041;-86
2022/05/27 13:11:14;;;;;;;14.73;2.03;;;16.90;99.90;;;;;;5033645;28;20473;-86
2022/05/27 13:13:41;;;;;;;6.75;1.55;;;17.10;99.90;;;;;;5033866;28;20099;-85
2022/05/27 13:16:23;;;;;;;10.55;2.15;;;17.10;99.90;;;;;;5017043;28;20091;-85
2022/05/27 13:18:57;;;;;;;9.68;1.98;;;17.00;99.90;;;;;;5033641;28;20124;-85
2022/05/27 13:21:36;;;;;;;8.15;1.77;;;17.20;99.90;;;;;;5018410;28;20076;-85
2022/05/27 13:24:21;;;;;;;9.25;1.75;;;17.00;99.90;;;;;;5036844;28;20052;-84
2022/05/27 13:26:52;;;;;;;9.95;1.60;;;16.90;99.90;;;;;;5036679;28;20548;-86
2022/05/27 13:29:36;;;;;;;11.73;2.33;;;16.80;99.90;;;;;;5052947;28;20120;-86
2022/05/27 13:32:10;;;;;;;9.30;1.67;;;16.90;99.90;;;;;;5037816;28;20076;-85
2022/05/27 13:34:41;;;;;;;11.00;2.20;;;17.10;99.90;;;;;;5056724;28;20125;-85
2022/05/27 13:37:24;;;;;;;11.55;1.88;;;17.00;99.90;;;;;;5039724;28;20048;-85
2022/05/27 13:39:55;;;;;;;15.15;2.78;;;16.90;99.90;;;;;;5049540;28;20044;-86
2022/05/27 13:42:31;;;;;;;13.23;2.70;;;16.90;99.90;;;;;;5036230;28;20051;-86
2022/05/27 13:45:00;;;;;;;6.65;1.70;;;17.00;99.90;;;;;;5036725;28;20041;-86
2022/05/27 13:47:30;;;;;;;11.73;2.08;;;17.10;99.90;;;;;;5036436;28;20111;-86
2022/05/27 13:49:56;;;;;;;9.73;2.08;;;17.20;99.90;;;;;;5025649;28;20041;-86